Time;durP1;ratioP1;P1;durP2;ratioP2;P2;SDS_P1;SDS_P2;PMS_P1;PMS_P2;Temp;Humidity;BMP_temperature;BMP_pressure;BME280_temperature;BME280_humidity;BME280_pressure;Samples;Min_cycle;Max_cycle;Signal;HPM_P1;HPM_P2
2021/01/23 00:01:19;;;;;;;2.58;2.08;;;4.10;99.90;;;;;;5052253;28;20204;-62
2021/01/23 00:03:46;;;;;;;5.05;2.92;;;4.10;99.90;;;;;;5052918;28;20653;-59
2021/01/23 00:06:13;;;;;;;2.17;1.98;;;4.20;99.90;;;;;;5053080;28;20199;-61
2021/01/23 00:08:41;;;;;;;4.90;2.40;;;4.20;99.90;;;;;;5053372;28;20195;-59
2021/01/23 00:11:08;;;;;;;3.97;1.95;;;4.20;99.90;;;;;;5054479;28;20209;-60
2021/01/23 00:13:36;;;;;;;3.97;3.13;;;4.10;99.90;;;;;;5053183;28;20215;-61
2021/01/23 00:16:04;;;;;;;4.70;2.55;;;4.10;99.90;;;;;;5052481;28;20615;-63
2021/01/23 00:18:31;;;;;;;3.10;2.67;;;4.10;99.90;;;;;;5053067;28;20243;-57
2021/01/23 00:20:58;;;;;;;8.27;3.35;;;4.20;99.90;;;;;;5052586;28;20580;-61
2021/01/23 00:23:25;;;;;;;3.42;2.58;;;4.20;99.90;;;;;;5053036;28;20247;-60
2021/01/23 00:25:53;;;;;;;3.55;2.70;;;4.10;99.90;;;;;;5053027;28;20720;-60
2021/01/23 00:28:20;;;;;;;3.72;2.83;;;4.00;99.90;;;;;;5053013;28;20181;-61
2021/01/23 00:30:47;;;;;;;2.70;2.03;;;3.90;99.90;;;;;;5052335;28;20289;-59
2021/01/23 00:33:14;;;;;;;4.65;3.25;;;3.90;99.90;;;;;;5052696;28;20518;-61
2021/01/23 00:35:42;;;;;;;5.50;2.47;;;4.00;99.90;;;;;;5052835;28;20216;-61
2021/01/23 00:38:09;;;;;;;4.22;2.60;;;4.00;99.90;;;;;;5052437;28;20551;-60
2021/01/23 00:40:36;;;;;;;6.45;3.40;;;4.10;99.90;;;;;;5051891;28;20216;-62
2021/01/23 00:43:04;;;;;;;4.55;4.15;;;4.10;99.90;;;;;;5034728;28;20307;-61
2021/01/23 00:45:32;;;;;;;28.85;17.75;;;4.10;99.90;;;;;;5052468;28;20189;-59
2021/01/23 00:48:06;;;;;;;12.77;8.88;;;4.10;99.90;;;;;;5052174;28;20264;-60
2021/01/23 00:50:34;;;;;;;9.80;6.57;;;4.00;99.90;;;;;;5034057;28;20261;-60
2021/01/23 00:53:01;;;;;;;11.27;7.40;;;4.00;99.90;;;;;;5052370;28;20279;-61
2021/01/23 00:55:29;;;;;;;8.90;6.55;;;4.00;99.90;;;;;;5034605;28;20758;-62
2021/01/23 00:57:56;;;;;;;13.60;8.55;;;3.90;99.90;;;;;;5051864;28;20649;-60
2021/01/23 01:00:24;;;;;;;5.30;3.83;;;4.00;99.90;;;;;;5034544;28;20208;-60
2021/01/23 01:02:51;;;;;;;11.48;4.90;;;3.80;99.90;;;;;;5052444;28;20212;-59
2021/01/23 01:05:29;;;;;;;14.02;8.93;;;3.80;99.90;;;;;;5034892;28;20520;-58
2021/01/23 01:07:56;;;;;;;7.25;5.72;;;3.80;99.90;;;;;;5052519;28;20189;-60
2021/01/23 01:10:23;;;;;;;9.13;5.45;;;3.70;99.90;;;;;;5051639;28;20621;-62
2021/01/23 01:12:51;;;;;;;3.95;3.35;;;3.70;99.90;;;;;;5051661;28;20280;-61
2021/01/23 01:15:18;;;;;;;6.45;4.32;;;3.80;99.90;;;;;;5051756;28;20177;-61
2021/01/23 01:17:46;;;;;;;9.23;4.00;;;3.80;99.90;;;;;;5051218;28;20227;-60
2021/01/23 01:20:13;;;;;;;4.75;3.53;;;3.80;99.90;;;;;;5051793;28;20568;-60
2021/01/23 01:22:40;;;;;;;6.93;3.17;;;3.90;99.90;;;;;;5054556;28;20219;-56
2021/01/23 01:25:08;;;;;;;4.30;3.08;;;4.00;99.90;;;;;;5055854;28;20173;-63
2021/01/23 01:27:35;;;;;;;6.22;4.65;;;4.10;99.90;;;;;;5055805;28;20212;-62
2021/01/23 01:30:05;;;;;;;4.25;3.83;;;4.10;99.90;;;;;;5055604;28;20180;-61
2021/01/23 01:32:33;;;;;;;7.90;4.05;;;4.10;99.90;;;;;;5055402;28;20561;-58
2021/01/23 01:35:01;;;;;;;6.43;4.13;;;4.10;99.90;;;;;;5055600;28;20185;-59
2021/01/23 01:37:28;;;;;;;9.30;3.75;;;4.20;99.90;;;;;;5055608;28;20216;-59
2021/01/23 01:39:55;;;;;;;5.72;5.10;;;4.30;99.90;;;;;;5055860;28;20247;-60
2021/01/23 01:42:22;;;;;;;4.57;3.60;;;4.30;99.90;;;;;;5055326;28;20259;-60
2021/01/23 01:44:50;;;;;;;7.28;4.82;;;4.30;99.90;;;;;;5055604;28;20192;-60
2021/01/23 01:47:17;;;;;;;7.45;4.40;;;4.40;99.90;;;;;;5055614;28;20652;-60
2021/01/23 01:49:45;;;;;;;8.65;3.85;;;4.40;99.90;;;;;;5055292;28;20192;-57
2021/01/23 01:52:14;;;;;;;13.15;5.47;;;4.40;99.90;;;;;;5054724;28;20173;-61
2021/01/23 01:54:41;;;;;;;4.70;3.33;;;4.50;99.90;;;;;;5054951;28;20195;-58
2021/01/23 01:57:08;;;;;;;4.22;3.35;;;4.50;99.90;;;;;;5036751;28;20587;-60
2021/01/23 01:59:36;;;;;;;3.40;2.58;;;4.50;99.90;;;;;;5054835;28;20212;-62
2021/01/23 02:02:22;;;;;;;4.68;4.13;;;4.50;99.90;;;;;;5054499;28;20208;-59
2021/01/23 02:04:57;;;;;;;8.18;4.45;;;4.50;99.90;;;;;;5055072;28;20589;-60
2021/01/23 02:07:36;;;;;;;7.53;4.78;;;4.50;99.90;;;;;;5054996;28;20180;-59
2021/01/23 02:10:28;;;;;;;6.63;4.30;;;4.50;99.90;;;;;;5054290;28;20216;-59
2021/01/23 02:13:15;;;;;;;6.72;5.15;;;4.50;99.90;;;;;;5053898;28;20192;-58
2021/01/23 02:15:47;;;;;;;3.38;2.83;;;4.50;99.90;;;;;;5054640;28;20575;-61
2021/01/23 02:18:17;;;;;;;9.00;5.53;;;4.50;99.90;;;;;;5054471;28;20599;-60
2021/01/23 02:21:21;;;;;;;3.05;2.75;;;4.40;99.90;;;;;;5054207;28;20204;-61
2021/01/23 02:23:49;;;;;;;6.30;4.50;;;4.30;99.90;;;;;;5054262;28;20235;-61
2021/01/23 02:26:24;;;;;;;5.75;4.15;;;4.30;99.90;;;;;;5036701;28;20207;-60
2021/01/23 02:29:14;;;;;;;9.85;4.82;;;4.30;99.90;;;;;;5055323;28;20192;-60
2021/01/23 02:31:45;;;;;;;8.93;5.88;;;4.30;99.90;;;;;;5055727;28;20212;-60
2021/01/23 02:34:18;;;;;;;4.85;3.85;;;4.40;99.90;;;;;;5054178;28;20657;-61
2021/01/23 02:36:47;;;;;;;6.25;4.32;;;4.40;99.90;;;;;;5056449;28;20301;-60
2021/01/23 02:39:15;;;;;;;12.55;5.28;;;4.40;99.90;;;;;;5055726;28;20268;-62
2021/01/23 02:41:43;;;;;;;4.13;3.70;;;4.40;99.90;;;;;;5054582;28;20243;-61
2021/01/23 02:44:11;;;;;;;6.00;4.45;;;4.40;99.90;;;;;;5054667;28;20192;-60
2021/01/23 02:46:38;;;;;;;7.85;4.55;;;4.30;99.90;;;;;;5054850;28;20631;-61
2021/01/23 02:49:06;;;;;;;6.70;4.25;;;4.30;99.90;;;;;;5055058;28;20641;-59
2021/01/23 02:51:37;;;;;;;6.50;4.43;;;4.30;99.90;;;;;;5036841;28;20724;-61
2021/01/23 02:54:11;;;;;;;7.78;5.25;;;4.40;99.90;;;;;;5054963;28;20701;-60
2021/01/23 02:56:40;;;;;;;6.68;4.93;;;4.40;99.90;;;;;;5053937;28;20188;-58
2021/01/23 02:59:07;;;;;;;7.07;3.65;;;4.40;99.90;;;;;;5054449;28;20188;-61
2021/01/23 03:01:38;;;;;;;8.00;5.30;;;4.40;99.90;;;;;;5054059;28;20216;-60
2021/01/23 03:04:08;;;;;;;10.50;5.45;;;4.30;99.90;;;;;;5054256;28;20258;-61
2021/01/23 03:06:37;;;;;;;6.85;5.55;;;4.20;99.90;;;;;;5055309;28;20715;-58
2021/01/23 03:09:17;;;;;;;9.77;6.03;;;4.20;99.90;;;;;;5053164;28;20239;-60
2021/01/23 03:11:44;;;;;;;6.22;4.30;;;4.10;99.90;;;;;;5054026;28;20633;-57
2021/01/23 03:14:11;;;;;;;8.40;4.68;;;4.00;99.90;;;;;;5053850;28;20192;-56
2021/01/23 03:16:46;;;;;;;6.00;4.55;;;4.00;99.90;;;;;;5053926;28;20180;-59
2021/01/23 03:19:14;;;;;;;5.38;4.47;;;4.00;99.90;;;;;;5053551;28;20185;-60
2021/01/23 03:21:42;;;;;;;4.70;3.75;;;4.00;99.90;;;;;;5053086;28;20205;-59
2021/01/23 03:24:10;;;;;;;9.30;4.15;;;4.00;99.90;;;;;;5053553;28;20294;-60
2021/01/23 03:26:37;;;;;;;6.50;4.40;;;4.00;99.90;;;;;;5053820;28;20184;-58
2021/01/23 03:29:04;;;;;;;7.05;5.90;;;4.10;99.90;;;;;;5053412;28;20189;-57
2021/01/23 03:31:32;;;;;;;6.47;4.28;;;4.20;99.90;;;;;;5053410;28;20215;-59
2021/01/23 03:33:59;;;;;;;6.00;4.20;;;4.10;99.90;;;;;;5035543;28;20280;-56
2021/01/23 03:36:27;;;;;;;10.05;6.22;;;4.20;99.90;;;;;;5053503;28;20626;-54
2021/01/23 03:38:54;;;;;;;7.20;4.50;;;4.20;99.90;;;;;;5052927;28;20188;-60
2021/01/23 03:41:21;;;;;;;7.13;4.25;;;4.10;99.90;;;;;;5052414;28;20204;-60
2021/01/23 03:43:48;;;;;;;7.93;5.45;;;4.10;99.90;;;;;;5052448;28;20693;-56
2021/01/23 03:46:16;;;;;;;8.60;6.55;;;4.20;99.90;;;;;;5052321;28;20239;-60
2021/01/23 03:48:44;;;;;;;10.50;7.70;;;4.10;99.90;;;;;;5052707;28;20635;-56
2021/01/23 03:51:11;;;;;;;8.43;6.25;;;4.20;99.90;;;;;;5053182;28;20205;-58
2021/01/23 03:53:41;;;;;;;12.38;7.53;;;4.20;99.90;;;;;;5035343;28;20246;-57
2021/01/23 03:56:08;;;;;;;8.82;4.82;;;4.20;99.90;;;;;;5053266;28;20247;-59
2021/01/23 03:58:36;;;;;;;11.25;7.90;;;4.10;99.90;;;;;;5052757;28;20203;-58
2021/01/23 04:01:04;;;;;;;4.95;4.47;;;4.20;99.90;;;;;;5052284;28;20610;-60
2021/01/23 04:03:31;;;;;;;9.15;6.38;;;4.10;99.90;;;;;;5053237;28;20208;-59
2021/01/23 04:05:58;;;;;;;7.93;6.85;;;4.00;99.90;;;;;;5053071;28;20595;-58
2021/01/23 04:08:25;;;;;;;12.40;8.68;;;4.00;99.90;;;;;;5034487;28;20201;-60
2021/01/23 04:10:53;;;;;;;17.20;11.05;;;4.00;99.90;;;;;;5052529;28;20208;-59
2021/01/23 04:13:20;;;;;;;18.92;11.38;;;4.00;99.90;;;;;;5052255;28;20267;-60
2021/01/23 04:15:47;;;;;;;11.20;8.18;;;4.00;99.90;;;;;;5052513;28;20196;-58
2021/01/23 04:18:15;;;;;;;14.70;9.20;;;3.90;99.90;;;;;;5034584;28;20295;-57
2021/01/23 04:20:42;;;;;;;18.38;11.23;;;3.80;99.90;;;;;;5052238;28;20216;-58
2021/01/23 04:23:09;;;;;;;14.40;9.15;;;3.80;99.90;;;;;;5051605;28;20211;-58
2021/01/23 04:25:37;;;;;;;8.52;6.13;;;3.80;99.90;;;;;;5051947;28;20196;-57
2021/01/23 04:28:05;;;;;;;10.10;8.00;;;3.70;99.90;;;;;;5034372;28;20201;-56
2021/01/23 04:30:32;;;;;;;9.95;5.30;;;3.70;99.90;;;;;;5051786;28;20319;-59
2021/01/23 04:32:59;;;;;;;10.70;7.68;;;3.80;99.90;;;;;;5051826;28;20208;-57
2021/01/23 04:35:27;;;;;;;13.88;6.53;;;3.90;99.90;;;;;;5051771;28;20239;-60
2021/01/23 04:37:54;;;;;;;7.40;6.18;;;3.90;99.90;;;;;;5051806;28;20196;-57
2021/01/23 04:40:21;;;;;;;8.68;7.88;;;3.90;99.90;;;;;;5051840;28;20200;-59
2021/01/23 04:42:49;;;;;;;10.40;7.57;;;3.90;99.90;;;;;;5051664;28;20626;-57
2021/01/23 04:45:17;;;;;;;9.55;8.50;;;3.90;99.90;;;;;;5051738;28;20185;-59
2021/01/23 04:47:44;;;;;;;11.40;8.00;;;4.00;99.90;;;;;;5052185;28;20634;-59
2021/01/23 04:50:12;;;;;;;15.27;7.90;;;4.00;99.90;;;;;;5052082;28;20299;-57
2021/01/23 04:52:41;;;;;;;15.77;5.35;;;4.00;99.90;;;;;;5051971;28;20184;-59
2021/01/23 04:55:10;;;;;;;8.20;5.97;;;4.10;99.90;;;;;;5051462;28;20188;-58
2021/01/23 04:57:37;;;;;;;7.53;4.30;;;4.10;99.90;;;;;;5051480;28;20199;-56
2021/01/23 05:00:06;;;;;;;12.77;6.45;;;4.10;99.90;;;;;;5051929;28;20185;-59
2021/01/23 05:02:35;;;;;;;11.27;6.57;;;4.20;99.90;;;;;;5052589;28;20711;-59
2021/01/23 05:05:05;;;;;;;10.48;5.55;;;4.20;99.90;;;;;;5052726;28;20216;-58
2021/01/23 05:07:34;;;;;;;12.10;5.82;;;4.30;99.90;;;;;;5033941;28;20192;-57
2021/01/23 05:10:13;;;;;;;10.27;6.35;;;4.20;99.90;;;;;;5051908;28;20216;-58
2021/01/23 05:12:42;;;;;;;6.35;5.47;;;4.30;99.90;;;;;;5033846;28;20201;-58
2021/01/23 05:15:10;;;;;;;9.95;6.00;;;4.30;99.90;;;;;;5032003;28;20240;-58
2021/01/23 05:17:50;;;;;;;10.18;5.72;;;4.40;99.90;;;;;;5014325;28;20213;-59
2021/01/23 05:20:34;;;;;;;10.80;6.57;;;4.40;99.90;;;;;;5031168;28;20209;-56
2021/01/23 05:23:03;;;;;;;7.35;4.80;;;4.50;99.90;;;;;;5030752;28;20213;-57
2021/01/23 05:25:32;;;;;;;12.50;7.03;;;4.50;99.90;;;;;;5030700;28;20572;-56
2021/01/23 05:28:00;;;;;;;8.40;5.78;;;4.50;99.90;;;;;;5030505;28;20594;-57
2021/01/23 05:30:43;;;;;;;12.32;6.05;;;4.50;99.90;;;;;;5030232;28;20216;-54
2021/01/23 05:33:13;;;;;;;5.15;4.43;;;4.50;99.90;;;;;;5030191;28;20235;-54
2021/01/23 05:35:42;;;;;;;5.95;4.90;;;4.50;99.90;;;;;;5030537;28;20220;-54
2021/01/23 05:38:24;;;;;;;10.57;6.13;;;4.50;99.90;;;;;;5030541;28;20215;-58
2021/01/23 05:40:54;;;;;;;7.65;6.43;;;4.50;99.90;;;;;;5030535;28;20308;-54
2021/01/23 05:43:32;;;;;;;10.23;5.97;;;4.50;99.90;;;;;;5030094;28;20673;-56
2021/01/23 05:46:01;;;;;;;8.52;5.85;;;4.50;99.90;;;;;;5030735;28;20174;-60
2021/01/23 05:48:30;;;;;;;9.93;6.50;;;4.40;99.90;;;;;;5030613;28;20201;-59
2021/01/23 05:50:57;;;;;;;9.75;7.82;;;4.50;99.90;;;;;;5030286;28;20221;-54
2021/01/23 05:53:24;;;;;;;8.30;6.25;;;4.40;99.90;;;;;;5012399;28;20193;-56
2021/01/23 05:55:52;;;;;;;13.27;7.28;;;4.40;99.90;;;;;;5030313;28;20248;-53
2021/01/23 05:58:19;;;;;;;8.73;5.90;;;4.40;99.90;;;;;;5030327;28;20197;-53
2021/01/23 06:00:48;;;;;;;15.07;7.65;;;4.30;99.90;;;;;;5030164;28;20220;-58
2021/01/23 06:03:17;;;;;;;8.07;5.38;;;4.40;99.90;;;;;;5030319;28;20213;-53
2021/01/23 06:05:45;;;;;;;8.25;5.20;;;4.40;99.90;;;;;;5030174;28;20560;-56
2021/01/23 06:08:12;;;;;;;10.55;8.05;;;4.40;99.90;;;;;;5031536;28;20193;-58
2021/01/23 06:10:41;;;;;;;9.35;7.38;;;4.40;99.90;;;;;;5034007;28;20220;-55
2021/01/23 06:13:34;;;;;;;12.20;6.13;;;4.30;99.90;;;;;;5033824;28;20178;-58
2021/01/23 06:16:04;;;;;;;7.38;5.80;;;4.30;99.90;;;;;;5033987;28;20178;-58
2021/01/23 06:18:32;;;;;;;8.60;6.53;;;4.30;99.90;;;;;;5034646;28;20190;-59
2021/01/23 06:21:01;;;;;;;7.75;5.82;;;4.40;99.90;;;;;;5034046;28;20216;-57
2021/01/23 06:23:49;;;;;;;6.88;5.63;;;4.30;99.90;;;;;;5034380;28;20651;-57
2021/01/23 06:26:17;;;;;;;7.93;4.38;;;4.30;99.90;;;;;;5034149;28;20264;-58
2021/01/23 06:28:57;;;;;;;5.20;4.70;;;4.10;99.90;;;;;;5034406;28;20198;-57
2021/01/23 06:31:35;;;;;;;9.32;7.25;;;4.00;99.90;;;;;;5033756;28;20215;-58
2021/01/23 06:34:23;;;;;;;9.68;6.60;;;4.10;99.90;;;;;;5033955;28;20261;-58
2021/01/23 06:37:24;;;;;;;8.85;6.05;;;3.90;99.90;;;;;;5033943;28;20205;-58
2021/01/23 06:40:09;;;;;;;8.73;7.65;;;3.70;99.90;;;;;;5034033;28;20268;-54
2021/01/23 06:42:39;;;;;;;8.43;4.97;;;3.80;99.90;;;;;;5033167;28;20189;-58
2021/01/23 06:45:20;;;;;;;10.65;5.50;;;3.90;99.90;;;;;;5033476;28;20177;-59
2021/01/23 06:47:48;;;;;;;6.32;5.72;;;3.90;99.90;;;;;;5033935;28;20745;-56
2021/01/23 06:50:31;;;;;;;11.77;5.75;;;3.80;99.90;;;;;;5034140;28;20690;-57
2021/01/23 06:53:00;;;;;;;10.02;5.95;;;3.80;99.90;;;;;;5034445;28;20184;-59
2021/01/23 06:55:43;;;;;;;9.63;7.07;;;3.80;99.90;;;;;;5034314;28;20189;-55
2021/01/23 06:58:19;;;;;;;7.65;6.20;;;4.00;99.90;;;;;;5015231;28;20207;-58
2021/01/23 07:00:47;;;;;;;10.32;5.57;;;4.10;99.90;;;;;;5015403;28;20213;-58
2021/01/23 07:03:15;;;;;;;7.22;6.40;;;4.20;99.90;;;;;;5032343;28;20209;-59
2021/01/23 07:06:02;;;;;;;9.75;6.97;;;4.30;99.90;;;;;;5032512;28;20497;-57
2021/01/23 07:08:32;;;;;;;6.10;4.70;;;4.40;99.90;;;;;;5032538;28;20566;-59
2021/01/23 07:11:17;;;;;;;15.63;8.13;;;4.40;99.90;;;;;;5032756;28;20219;-57
2021/01/23 07:14:01;;;;;;;9.23;6.28;;;4.50;99.90;;;;;;5032600;28;20284;-59
2021/01/23 07:16:31;;;;;;;10.15;6.45;;;4.40;99.90;;;;;;5033486;28;20181;-63
2021/01/23 07:18:59;;;;;;;8.88;7.18;;;4.30;99.90;;;;;;5032808;28;20193;-62
2021/01/23 07:21:28;;;;;;;8.10;4.38;;;4.30;99.90;;;;;;5032857;28;20213;-62
2021/01/23 07:23:57;;;;;;;6.07;4.88;;;4.20;99.90;;;;;;5033322;28;20197;-60
2021/01/23 07:26:25;;;;;;;11.38;6.30;;;4.20;99.90;;;;;;5039120;28;20189;-59
2021/01/23 07:28:53;;;;;;;8.68;6.50;;;4.20;99.90;;;;;;5053664;28;20199;-62
2021/01/23 07:31:22;;;;;;;8.43;5.82;;;4.40;99.90;;;;;;5053405;28;20209;-61
2021/01/23 07:33:50;;;;;;;11.52;6.47;;;4.40;99.90;;;;;;5053666;28;20197;-60
2021/01/23 07:36:31;;;;;;;10.20;5.90;;;4.40;99.90;;;;;;5035446;28;20189;-62
2021/01/23 07:39:00;;;;;;;6.95;4.60;;;4.30;99.90;;;;;;5053534;28;20196;-58
2021/01/23 07:41:32;;;;;;;4.95;4.15;;;4.30;99.90;;;;;;5052927;28;20689;-62
2021/01/23 07:44:00;;;;;;;7.38;4.75;;;4.30;99.90;;;;;;5053196;28;20203;-58
2021/01/23 07:46:38;;;;;;;8.50;4.82;;;4.40;99.90;;;;;;5053100;28;20199;-57
2021/01/23 07:49:07;;;;;;;5.25;4.05;;;4.40;99.90;;;;;;5053252;28;20195;-61
2021/01/23 07:51:34;;;;;;;8.10;5.35;;;4.50;99.90;;;;;;5053045;28;20212;-61
2021/01/23 07:54:05;;;;;;;5.70;3.83;;;4.50;99.90;;;;;;5053700;28;20185;-61
2021/01/23 07:56:33;;;;;;;6.05;3.53;;;4.40;99.90;;;;;;5053812;28;20198;-57
2021/01/23 07:59:01;;;;;;;7.75;3.92;;;4.30;99.90;;;;;;5053727;28;20630;-61
2021/01/23 08:01:29;;;;;;;4.18;2.80;;;4.20;99.90;;;;;;5053746;28;20219;-59
2021/01/23 08:03:57;;;;;;;4.82;3.70;;;4.10;99.90;;;;;;5053300;28;20205;-63
2021/01/23 08:06:26;;;;;;;9.98;5.43;;;4.10;99.90;;;;;;5052488;28;20181;-60
2021/01/23 08:08:53;;;;;;;3.67;2.65;;;4.00;99.90;;;;;;5052671;28;20206;-60
2021/01/23 08:11:36;;;;;;;3.50;2.55;;;3.90;99.90;;;;;;5050864;28;20274;-61
2021/01/23 08:14:08;;;;;;;2.70;2.08;;;3.90;99.90;;;;;;5021913;28;20191;-61
2021/01/23 08:16:35;;;;;;;8.38;4.00;;;3.80;99.90;;;;;;5052994;28;20623;-61
2021/01/23 08:19:06;;;;;;;6.85;3.08;;;3.80;99.90;;;;;;5035558;28;20696;-62
2021/01/23 08:21:34;;;;;;;3.92;2.53;;;3.70;99.90;;;;;;5017567;28;20225;-62
2021/01/23 08:24:01;;;;;;;14.75;2.75;;;3.50;99.90;;;;;;5032405;28;20208;-59
2021/01/23 08:26:40;;;;;;;5.13;2.85;;;3.40;99.90;;;;;;5031761;28;20413;-60
2021/01/23 08:29:07;;;;;;;4.22;3.22;;;3.30;99.90;;;;;;5032608;28;20549;-62
2021/01/23 08:31:34;;;;;;;8.13;3.35;;;3.40;99.90;;;;;;5028782;28;20217;-57
2021/01/23 08:34:01;;;;;;;6.82;2.88;;;3.30;99.90;;;;;;5040906;28;20276;-57
2021/01/23 08:36:30;;;;;;;4.22;3.58;;;3.40;99.90;;;;;;5052117;28;20200;-56
2021/01/23 08:39:01;;;;;;;4.78;3.83;;;3.30;99.90;;;;;;5051832;28;20199;-55
2021/01/23 08:41:28;;;;;;;7.50;5.22;;;3.30;99.90;;;;;;5051672;28;20227;-60
2021/01/23 08:43:56;;;;;;;8.07;3.50;;;3.00;99.90;;;;;;5051619;28;20725;-56
2021/01/23 08:46:23;;;;;;;7.57;4.15;;;2.80;99.90;;;;;;5051752;28;20535;-58
2021/01/23 08:48:50;;;;;;;6.60;3.70;;;2.50;99.90;;;;;;5051935;28;20211;-61
2021/01/23 08:51:18;;;;;;;8.45;5.00;;;2.50;99.90;;;;;;5052172;28;20231;-57
2021/01/23 08:53:46;;;;;;;7.65;4.78;;;2.40;99.90;;;;;;5047113;28;20525;-58
2021/01/23 08:56:14;;;;;;;5.53;4.72;;;2.40;99.90;;;;;;5031829;28;20601;-59
2021/01/23 08:58:41;;;;;;;6.45;5.18;;;2.40;99.90;;;;;;5017966;28;20538;-60
2021/01/23 09:01:09;;;;;;;7.22;6.10;;;2.30;99.90;;;;;;5030592;28;20221;-57
2021/01/23 09:03:38;;;;;;;6.53;5.93;;;2.30;99.90;;;;;;5030917;28;20213;-56
2021/01/23 09:06:05;;;;;;;15.98;6.40;;;2.20;99.90;;;;;;5034698;28;20192;-56
2021/01/23 09:08:35;;;;;;;6.88;6.18;;;2.20;99.90;;;;;;5031379;28;20220;-60
2021/01/23 09:11:02;;;;;;;10.70;5.15;;;2.20;99.90;;;;;;5034349;28;20283;-58
2021/01/23 09:13:29;;;;;;;11.18;6.20;;;2.20;99.90;;;;;;5034904;28;20224;-56
2021/01/23 09:15:56;;;;;;;7.18;4.57;;;2.20;99.90;;;;;;5035989;28;20573;-53
2021/01/23 09:18:24;;;;;;;3.90;3.10;;;2.20;99.90;;;;;;5034226;28;20595;-59
2021/01/23 09:20:55;;;;;;;8.63;5.90;;;2.20;99.90;;;;;;5031860;28;20249;-59
2021/01/23 09:23:22;;;;;;;9.20;5.47;;;2.10;99.90;;;;;;5032885;28;20537;-57
2021/01/23 09:25:49;;;;;;;9.20;6.10;;;2.00;99.90;;;;;;5031417;28;20208;-56
2021/01/23 09:28:16;;;;;;;11.70;6.10;;;2.00;99.90;;;;;;5031385;28;20577;-58
2021/01/23 09:30:44;;;;;;;12.38;7.38;;;2.00;99.90;;;;;;5031085;28;20204;-54
2021/01/23 09:33:11;;;;;;;13.80;8.45;;;2.00;99.90;;;;;;5031506;28;20192;-59
2021/01/23 09:35:41;;;;;;;11.50;8.13;;;1.90;99.90;;;;;;5031544;28;20201;-57
2021/01/23 09:38:08;;;;;;;9.73;5.53;;;1.80;99.90;;;;;;5031507;28;20189;-56
2021/01/23 09:40:35;;;;;;;7.60;6.22;;;1.90;99.90;;;;;;5039107;28;20212;-59
2021/01/23 09:43:03;;;;;;;14.73;6.60;;;2.00;99.90;;;;;;5052201;28;20184;-58
2021/01/23 09:45:30;;;;;;;12.85;8.02;;;2.00;99.90;;;;;;5055288;28;20195;-57
2021/01/23 09:47:58;;;;;;;13.98;8.73;;;2.10;99.90;;;;;;5055681;28;20188;-58
2021/01/23 09:50:41;;;;;;;14.82;6.75;;;2.10;99.90;;;;;;5054952;28;20295;-55
2021/01/23 09:53:08;;;;;;;8.73;7.85;;;2.10;99.90;;;;;;5055569;28;20185;-55
2021/01/23 09:55:35;;;;;;;14.55;9.27;;;2.10;99.90;;;;;;5055355;28;20181;-58
2021/01/23 09:58:02;;;;;;;11.13;7.63;;;2.10;99.90;;;;;;5055298;28;20192;-57
2021/01/23 10:00:29;;;;;;;8.13;5.30;;;2.20;99.90;;;;;;5055337;28;20205;-59
2021/01/23 10:02:56;;;;;;;19.83;7.35;;;2.20;99.90;;;;;;5055735;28;20275;-57
2021/01/23 10:05:24;;;;;;;11.85;6.05;;;2.20;99.90;;;;;;5055165;28;20196;-56
2021/01/23 10:07:52;;;;;;;12.57;6.78;;;2.20;99.90;;;;;;5055252;28;20192;-52
2021/01/23 10:10:19;;;;;;;14.45;8.35;;;2.20;99.90;;;;;;5037167;28;20562;-56
2021/01/23 10:12:46;;;;;;;8.10;4.60;;;2.20;99.90;;;;;;5055484;28;20196;-58
2021/01/23 10:15:14;;;;;;;9.88;6.65;;;2.10;99.90;;;;;;5037191;28;20193;-54
2021/01/23 10:17:41;;;;;;;9.70;7.38;;;2.20;99.90;;;;;;5051203;28;20204;-55
2021/01/23 10:20:09;;;;;;;9.23;7.47;;;2.20;99.90;;;;;;5054351;28;20208;-57
2021/01/23 10:22:36;;;;;;;9.38;5.40;;;2.30;99.90;;;;;;5055729;28;20177;-55
2021/01/23 10:25:06;;;;;;;9.25;5.72;;;2.20;99.90;;;;;;5054764;28;20737;-57
2021/01/23 10:27:34;;;;;;;11.05;5.95;;;2.20;99.90;;;;;;5054562;28;20185;-56
2021/01/23 10:30:02;;;;;;;9.15;5.57;;;2.20;99.90;;;;;;5054037;28;20555;-53
2021/01/23 10:32:30;;;;;;;8.95;7.10;;;2.20;99.90;;;;;;5054553;28;20184;-56
2021/01/23 10:34:57;;;;;;;13.98;6.82;;;2.20;99.90;;;;;;5054879;28;20176;-58
2021/01/23 10:37:24;;;;;;;11.02;6.85;;;2.10;99.90;;;;;;5054454;28;20662;-54
2021/01/23 10:39:51;;;;;;;7.28;4.57;;;2.20;99.90;;;;;;5054387;28;20653;-58
2021/01/23 10:42:19;;;;;;;12.02;7.63;;;2.20;99.90;;;;;;5054335;28;20181;-59
2021/01/23 10:44:46;;;;;;;14.52;8.65;;;2.20;99.90;;;;;;5053456;28;20201;-55
2021/01/23 10:47:13;;;;;;;8.65;6.13;;;2.10;99.90;;;;;;5054209;28;20196;-61
2021/01/23 10:49:41;;;;;;;12.27;6.38;;;2.00;99.90;;;;;;5055020;28;20319;-61
2021/01/23 10:52:08;;;;;;;14.20;7.80;;;2.00;99.90;;;;;;5055831;28;20736;-55
2021/01/23 10:54:35;;;;;;;7.65;6.88;;;2.00;99.90;;;;;;5054487;28;20173;-59
2021/01/23 10:57:03;;;;;;;8.25;4.75;;;2.10;99.90;;;;;;5055760;28;20173;-59
2021/01/23 10:59:31;;;;;;;12.93;6.40;;;2.30;99.90;;;;;;5054957;28;20185;-53
2021/01/23 11:01:58;;;;;;;14.65;8.15;;;2.30;99.90;;;;;;5054775;28;20217;-57
2021/01/23 11:04:26;;;;;;;8.60;5.55;;;2.30;99.90;;;;;;5054215;28;20200;-57
2021/01/23 11:06:53;;;;;;;8.50;5.97;;;2.30;99.90;;;;;;5054031;28;20250;-65
2021/01/23 11:09:20;;;;;;;16.52;7.65;;;2.30;99.90;;;;;;5054339;28;20196;-55
2021/01/23 11:11:47;;;;;;;8.20;3.65;;;2.40;99.90;;;;;;5054302;28;20208;-60
2021/01/23 11:14:14;;;;;;;7.65;5.13;;;2.40;99.90;;;;;;5053860;28;20192;-57
2021/01/23 11:16:42;;;;;;;8.18;5.50;;;2.30;99.90;;;;;;5053194;28;20242;-61
2021/01/23 11:19:12;;;;;;;7.00;5.68;;;2.40;99.90;;;;;;5036462;28;20305;-59
2021/01/23 11:21:44;;;;;;;15.65;5.18;;;2.40;99.90;;;;;;5033386;28;20238;-61
2021/01/23 11:24:12;;;;;;;11.90;4.10;;;2.40;99.90;;;;;;5034239;28;20193;-61
2021/01/23 11:26:39;;;;;;;7.90;4.53;;;2.40;99.90;;;;;;5034234;28;20185;-61
2021/01/23 11:29:06;;;;;;;4.60;3.40;;;2.50;99.90;;;;;;5034219;28;20625;-56
2021/01/23 11:31:33;;;;;;;7.18;5.15;;;2.60;99.90;;;;;;5034451;28;20213;-62
2021/01/23 11:34:02;;;;;;;5.45;4.22;;;2.60;99.90;;;;;;5097799;22;20177;-49
2021/01/23 11:36:31;;;;;;;8.10;3.38;;;2.60;99.90;;;;;;5014641;28;20185;-47
2021/01/23 11:38:59;;;;;;;3.58;3.28;;;2.60;99.90;;;;;;5014615;28;20190;-55
2021/01/23 11:41:26;;;;;;;10.73;5.78;;;2.60;99.90;;;;;;5013923;28;20217;-56
2021/01/23 11:43:54;;;;;;;5.65;3.63;;;2.60;99.90;;;;;;5011414;28;20532;-47
2021/01/23 11:46:21;;;;;;;5.95;3.85;;;2.50;99.90;;;;;;5013725;28;20232;-47
2021/01/23 11:48:49;;;;;;;6.78;3.83;;;2.60;99.90;;;;;;5013673;28;20278;-50
2021/01/23 11:51:17;;;;;;;8.77;5.47;;;2.60;99.90;;;;;;4994738;28;20688;-51
2021/01/23 11:53:44;;;;;;;8.52;3.35;;;2.80;99.90;;;;;;4993615;28;20182;-53
2021/01/23 11:56:11;;;;;;;7.78;3.92;;;2.90;99.90;;;;;;4993617;28;20186;-50
2021/01/23 11:58:38;;;;;;;9.70;6.90;;;3.00;99.90;;;;;;5016953;28;20193;-52
2021/01/23 12:01:05;;;;;;;9.25;4.45;;;3.10;99.90;;;;;;5032926;28;20213;-50
2021/01/23 12:03:33;;;;;;;12.77;5.43;;;3.10;99.90;;;;;;5032498;28;20292;-50
2021/01/23 12:06:00;;;;;;;6.75;4.78;;;3.00;99.90;;;;;;5032560;28;20184;-50
2021/01/23 12:08:28;;;;;;;8.02;6.13;;;3.10;99.90;;;;;;5032621;28;20190;-55
2021/01/23 12:10:55;;;;;;;7.28;4.05;;;3.10;99.90;;;;;;5011777;28;20214;-54
2021/01/23 12:13:22;;;;;;;9.82;7.70;;;3.20;99.90;;;;;;5006801;28;20202;-51
2021/01/23 12:15:49;;;;;;;10.43;6.93;;;3.30;99.90;;;;;;4993946;28;20183;-53
2021/01/23 12:18:16;;;;;;;14.85;6.88;;;3.50;99.90;;;;;;5004481;28;20438;-55
2021/01/23 12:20:43;;;;;;;10.73;6.55;;;3.70;99.90;;;;;;4998683;28;20218;-48
2021/01/23 12:23:10;;;;;;;9.25;5.85;;;3.70;99.90;;;;;;5007128;28;20241;-57
2021/01/23 12:25:38;;;;;;;10.07;5.78;;;3.80;99.90;;;;;;5013324;28;20182;-55
2021/01/23 12:28:06;;;;;;;14.25;8.35;;;3.80;99.90;;;;;;5012561;28;20610;-52
2021/01/23 12:30:34;;;;;;;10.73;5.30;;;3.80;99.90;;;;;;5012235;28;20748;-54
2021/01/23 12:33:01;;;;;;;12.57;6.60;;;3.80;99.90;;;;;;4994634;28;20233;-50
2021/01/23 12:35:28;;;;;;;12.20;5.00;;;3.90;99.90;;;;;;5011919;28;20194;-53
2021/01/23 12:37:58;;;;;;;10.38;7.57;;;3.90;99.90;;;;;;5012277;28;20209;-49
2021/01/23 12:40:27;;;;;;;10.63;7.18;;;3.90;99.90;;;;;;5011889;28;20213;-49
2021/01/23 12:42:55;;;;;;;14.10;7.72;;;3.80;99.90;;;;;;5012326;28;20198;-48
2021/01/23 12:45:22;;;;;;;7.63;5.63;;;4.00;99.90;;;;;;5012298;28;20198;-47
2021/01/23 12:47:49;;;;;;;10.90;8.15;;;4.00;99.90;;;;;;4994400;28;20197;-52
2021/01/23 12:50:16;;;;;;;10.95;8.43;;;4.00;99.90;;;;;;5012547;28;20209;-50
2021/01/23 12:52:44;;;;;;;13.82;9.68;;;4.00;99.90;;;;;;5011915;28;20185;-48
2021/01/23 12:55:12;;;;;;;14.73;7.80;;;4.00;99.90;;;;;;5011767;28;20178;-51
2021/01/23 12:57:40;;;;;;;14.60;8.70;;;3.90;99.90;;;;;;5011694;28;20214;-49
2021/01/23 13:00:09;;;;;;;12.75;6.28;;;3.90;99.90;;;;;;5011862;28;20529;-52
2021/01/23 13:02:37;;;;;;;14.80;10.52;;;3.90;99.90;;;;;;5011674;28;20178;-55
2021/01/23 13:05:06;;;;;;;12.75;10.15;;;3.90;99.90;;;;;;5011638;28;20677;-48